createdAt,value
2022-12-18T00:00:29.130Z,52.80
2022-12-18T00:02:31.826Z,63.10
2022-12-18T00:04:34.680Z,44.93
2022-12-18T00:06:37.646Z,54.90
2022-12-18T00:08:41.745Z,82.77
2022-12-18T00:10:45.001Z,72.20
2022-12-18T00:12:50.289Z,74.97
2022-12-18T00:14:53.227Z,40.53
2022-12-18T00:16:56.013Z,67.17
2022-12-18T00:19:01.913Z,70.57
2022-12-18T00:21:07.891Z,85.53
2022-12-18T00:23:10.827Z,69.27
2022-12-18T00:25:14.901Z,77.00
2022-12-18T00:27:17.769Z,44.93
2022-12-18T00:29:20.579Z,51.77
2022-12-18T00:31:25.725Z,39.80
2022-12-18T00:33:29.274Z,46.20
2022-12-18T00:35:33.310Z,65.10
2022-12-18T00:37:36.219Z,48.50
2022-12-18T00:39:39.207Z,63.97
2022-12-18T00:42:00.951Z,63.10
2022-12-18T00:44:04.389Z,58.00
2022-12-18T00:46:07.930Z,86.97
2022-12-18T00:48:10.691Z,58.13
2022-12-18T00:50:13.578Z,69.63
2022-12-18T00:52:16.280Z,64.27
2022-12-18T00:54:19.644Z,70.87
2022-12-18T00:56:26.094Z,57.50
2022-12-18T00:58:30.315Z,82.00
2022-12-18T01:00:33.216Z,57.60
2022-12-18T01:02:36.272Z,72.07
2022-12-18T01:04:39.081Z,84.40
2022-12-18T01:06:42.082Z,74.63
2022-12-18T01:08:45.404Z,72.47
2022-12-18T01:10:48.285Z,69.13
2022-12-18T01:12:51.170Z,82.03
2022-12-18T01:14:55.210Z,76.20
2022-12-18T01:16:58.079Z,94.40
2022-12-18T01:19:00.813Z,76.20
2022-12-18T01:21:08.320Z,59.07
2022-12-18T01:23:11.083Z,72.33
2022-12-18T01:25:13.783Z,99.90
2022-12-18T01:27:16.494Z,53.07
2022-12-18T01:29:19.389Z,81.10
2022-12-18T01:31:25.806Z,68.40
2022-12-18T01:33:28.529Z,94.27
2022-12-18T01:35:31.212Z,75.73
2022-12-18T01:37:34.033Z,69.83
2022-12-18T01:39:36.735Z,88.90
2022-12-18T01:41:57.803Z,61.80
2022-12-18T01:44:00.737Z,86.90
2022-12-18T01:46:04.260Z,65.03
2022-12-18T01:48:10.549Z,114.50
2022-12-18T01:50:16.437Z,92.90
2022-12-18T01:52:20.508Z,87.00
2022-12-18T01:54:23.403Z,128.73
2022-12-18T01:56:26.161Z,77.97
2022-12-18T01:58:37.478Z,64.63
2022-12-18T02:00:40.818Z,50.03
2022-12-18T02:02:45.449Z,112.87
2022-12-18T02:04:49.860Z,68.87
2022-12-18T02:06:58.665Z,53.33
2022-12-18T02:09:11.329Z,82.60
2022-12-18T02:11:23.903Z,72.33
2022-12-18T02:13:37.137Z,77.57
2022-12-18T02:15:45.861Z,61.23
2022-12-18T02:17:56.478Z,58.40
2022-12-18T02:20:15.785Z,94.80
2022-12-18T02:22:31.885Z,77.30
2022-12-18T02:24:40.518Z,51.30
2022-12-18T02:26:48.717Z,65.77
2022-12-18T02:28:57.028Z,61.93
2022-12-18T02:31:03.540Z,77.27
2022-12-18T02:33:10.403Z,52.87
2022-12-18T02:35:16.301Z,62.37
2022-12-18T02:37:21.829Z,46.77
2022-12-18T02:39:28.677Z,42.83
2022-12-18T02:41:33.288Z,53.97
2022-12-18T02:43:38.311Z,65.50
2022-12-18T02:45:49.712Z,69.57
2022-12-18T02:47:52.603Z,79.80
2022-12-18T02:50:03.190Z,56.53
2022-12-18T02:52:10.682Z,64.83
2022-12-18T02:54:23.492Z,49.47
2022-12-18T02:56:30.925Z,61.10
2022-12-18T02:58:48.877Z,55.87
2022-12-18T03:01:01.208Z,55.63
2022-12-18T03:03:09.613Z,50.20
2022-12-18T03:05:16.789Z,56.80
2022-12-18T03:07:24.704Z,47.40
2022-12-18T03:09:33.237Z,57.97
2022-12-18T03:11:57.891Z,46.27
2022-12-18T03:14:02.683Z,43.80
2022-12-18T03:16:09.562Z,48.00
2022-12-18T03:18:16.454Z,34.83
2022-12-18T03:20:22.513Z,37.03
2022-12-18T03:22:29.006Z,35.37
2022-12-18T03:24:33.522Z,39.43
2022-12-18T03:26:39.359Z,35.17
2022-12-18T03:28:47.300Z,36.57
2022-12-18T03:30:55.300Z,34.23
2022-12-18T03:33:04.485Z,35.77
2022-12-18T03:35:09.874Z,36.70
2022-12-18T03:37:13.111Z,38.27
2022-12-18T03:39:16.238Z,33.30
2022-12-18T03:41:25.601Z,39.93
2022-12-18T03:43:39.579Z,37.90
2022-12-18T03:45:50.435Z,38.57
2022-12-18T03:48:03.362Z,42.20
2022-12-18T03:50:12.986Z,36.70
2022-12-18T03:52:22.916Z,40.00
2022-12-18T03:54:27.850Z,38.87
2022-12-18T03:56:33.577Z,33.80
2022-12-18T03:58:40.235Z,38.67
2022-12-18T04:00:45.571Z,37.97
2022-12-18T04:02:53.117Z,34.70
2022-12-18T04:05:01.089Z,34.97
2022-12-18T04:07:04.424Z,36.00
2022-12-18T04:09:07.362Z,34.23
2022-12-18T04:11:10.231Z,35.27
2022-12-18T04:13:12.900Z,32.87
2022-12-18T04:15:15.865Z,31.30
2022-12-18T04:17:18.585Z,34.67
2022-12-18T04:19:21.465Z,33.40
2022-12-18T04:21:25.856Z,32.23
2022-12-18T04:23:29.167Z,28.30
2022-12-18T04:25:31.850Z,30.27
2022-12-18T04:27:34.553Z,30.40
2022-12-18T04:29:37.301Z,31.30
2022-12-18T04:31:40.302Z,30.43
2022-12-18T04:33:43.422Z,33.60
2022-12-18T04:35:46.662Z,26.40
2022-12-18T04:37:50.951Z,33.37
2022-12-18T04:39:53.710Z,26.00
2022-12-18T04:41:56.601Z,28.63
2022-12-18T04:43:59.889Z,27.80
2022-12-18T04:46:06.179Z,26.47
2022-12-18T04:48:09.030Z,28.47
2022-12-18T04:50:12.102Z,25.20
2022-12-18T04:52:14.997Z,23.27
2022-12-18T04:54:21.690Z,28.73
2022-12-18T04:56:25.098Z,26.93
2022-12-18T04:58:27.978Z,26.70
2022-12-18T05:00:30.711Z,28.03
2022-12-18T05:02:33.965Z,27.20
2022-12-18T05:04:36.769Z,25.97
2022-12-18T05:06:39.467Z,26.20
2022-12-18T05:08:42.264Z,24.97
2022-12-18T05:10:46.432Z,27.83
2022-12-18T05:13:01.453Z,27.27
2022-12-18T05:15:08.395Z,25.47
2022-12-18T05:17:11.099Z,27.43
2022-12-18T05:19:14.602Z,25.83
2022-12-18T05:21:17.417Z,25.30
2022-12-18T05:23:20.828Z,22.23
2022-12-18T05:25:24.724Z,24.20
2022-12-18T05:27:28.817Z,26.80
2022-12-18T05:29:31.509Z,23.83
2022-12-18T05:31:39.052Z,26.87
2022-12-18T05:33:43.076Z,22.60
2022-12-18T05:35:46.919Z,21.57
2022-12-18T05:37:49.607Z,21.37
2022-12-18T05:39:52.288Z,22.07
2022-12-18T05:41:55.048Z,24.50
2022-12-18T05:43:59.740Z,24.30
2022-12-18T05:46:07.625Z,25.47
2022-12-18T05:48:11.487Z,24.90
2022-12-18T05:50:14.264Z,29.87
2022-12-18T05:52:17.458Z,24.77
2022-12-18T05:54:20.138Z,26.40
2022-12-18T05:56:24.644Z,26.40
2022-12-18T05:58:27.380Z,23.30
2022-12-18T06:00:32.884Z,23.50
2022-12-18T06:02:35.784Z,23.17
2022-12-18T06:04:38.610Z,24.87
2022-12-18T06:06:41.348Z,27.20
2022-12-18T06:08:46.407Z,26.47
2022-12-18T06:10:53.524Z,26.63
2022-12-18T06:12:56.227Z,26.23
2022-12-18T06:14:58.910Z,28.17
2022-12-18T06:17:02.957Z,27.13
2022-12-18T06:19:07.079Z,28.70
2022-12-18T06:21:10.001Z,27.57
2022-12-18T06:23:12.694Z,26.73
2022-12-18T06:25:15.588Z,27.33
2022-12-18T06:27:18.955Z,26.10
2022-12-18T06:29:21.906Z,29.80
2022-12-18T06:31:24.832Z,27.17
2022-12-18T06:33:29.902Z,26.87
2022-12-18T06:35:33.997Z,24.80
2022-12-18T06:37:36.735Z,26.23
2022-12-18T06:39:39.440Z,26.70
2022-12-18T06:41:42.166Z,25.97
2022-12-18T06:43:45.168Z,26.67
2022-12-18T06:45:53.367Z,26.47
2022-12-18T06:47:56.133Z,26.07
2022-12-18T06:50:01.352Z,28.33
2022-12-18T06:52:04.731Z,74.40
2022-12-18T06:54:07.445Z,48.50
2022-12-18T06:56:11.084Z,27.30
2022-12-18T06:58:13.940Z,31.67
2022-12-18T07:00:17.112Z,31.10
2022-12-18T07:02:20.132Z,26.97
2022-12-18T07:04:22.968Z,38.40
2022-12-18T07:06:28.035Z,36.70
2022-12-18T07:08:31.078Z,37.57
2022-12-18T07:10:33.867Z,47.07
2022-12-18T07:12:37.449Z,35.73
2022-12-18T07:14:40.225Z,40.30
2022-12-18T07:16:43.173Z,29.63
2022-12-18T07:18:46.147Z,53.70
2022-12-18T07:20:48.841Z,228.80
2022-12-18T07:22:56.225Z,34.20
2022-12-18T07:24:59.649Z,33.93
2022-12-18T07:27:02.828Z,34.43
2022-12-18T07:29:05.605Z,31.10
2022-12-18T07:31:09.853Z,34.20
2022-12-18T07:33:12.640Z,32.20
2022-12-18T07:35:17.492Z,32.07
2022-12-18T07:37:23.435Z,36.47
2022-12-18T07:39:27.488Z,40.63
2022-12-18T07:41:30.322Z,36.67
2022-12-18T07:43:33.234Z,44.27
2022-12-18T07:45:36.081Z,40.47
2022-12-18T07:47:39.096Z,35.50
2022-12-18T07:49:41.802Z,36.10
2022-12-18T07:51:46.895Z,37.43
2022-12-18T07:53:52.136Z,44.33
2022-12-18T07:56:25.419Z,38.57
2022-12-18T07:58:21.551Z,39.03
2022-12-18T08:00:24.677Z,37.77
2022-12-18T08:02:27.416Z,31.73
2022-12-18T08:04:30.282Z,34.23
2022-12-18T08:06:33.091Z,33.53
2022-12-18T08:08:37.103Z,37.80
2022-12-18T08:10:40.069Z,30.83
2022-12-18T08:12:44.233Z,31.27
2022-12-18T08:14:46.903Z,31.40
2022-12-18T08:16:49.652Z,32.77
2022-12-18T08:18:54.213Z,32.87
2022-12-18T08:20:57.476Z,29.47
2022-12-18T08:23:00.238Z,29.20
2022-12-18T08:25:02.975Z,34.40
2022-12-18T08:27:29.451Z,28.57
2022-12-18T08:29:31.214Z,29.80
2022-12-18T08:31:34.075Z,32.13
2022-12-18T08:33:38.515Z,29.43
2022-12-18T08:35:45.742Z,34.07
2022-12-18T08:37:48.961Z,34.03
2022-12-18T08:39:51.758Z,35.87
2022-12-18T08:42:10.269Z,33.83
2022-12-18T08:44:30.980Z,31.20
2022-12-18T08:46:37.728Z,37.43
2022-12-18T08:48:40.481Z,44.53
2022-12-18T08:50:43.401Z,35.27
2022-12-18T08:52:46.059Z,36.40
2022-12-18T08:54:49.852Z,46.10
2022-12-18T08:56:52.795Z,36.77
2022-12-18T08:58:56.173Z,39.47
2022-12-18T09:01:02.093Z,37.10
2022-12-18T09:03:06.279Z,41.27
2022-12-18T09:05:09.623Z,40.43
2022-12-18T09:07:12.373Z,44.47
2022-12-18T09:09:15.331Z,39.77
2022-12-18T09:11:22.641Z,42.13
2022-12-18T09:13:25.387Z,37.57
2022-12-18T09:15:28.166Z,41.07
2022-12-18T09:17:31.099Z,36.87
2022-12-18T09:19:35.258Z,36.10
2022-12-18T09:21:46.134Z,39.53
2022-12-18T09:23:52.326Z,38.67
2022-12-18T09:26:00.747Z,40.57
2022-12-18T09:28:04.286Z,40.60
2022-12-18T09:30:08.571Z,34.00
2022-12-18T09:32:11.603Z,37.40
2022-12-18T09:34:14.466Z,35.03
2022-12-18T09:36:20.280Z,33.03
2022-12-18T09:38:24.927Z,40.57
2022-12-18T09:40:34.509Z,35.57
2022-12-18T09:42:37.301Z,36.00
2022-12-18T09:44:45.618Z,39.63
2022-12-18T09:46:54.716Z,49.20
2022-12-18T09:49:01.474Z,41.20
2022-12-18T09:51:12.852Z,40.30
2022-12-18T09:53:21.410Z,42.50
2022-12-18T09:55:32.181Z,39.40
2022-12-18T09:57:47.022Z,41.87
2022-12-18T09:59:55.072Z,40.37
2022-12-18T10:01:58.610Z,37.77
2022-12-18T10:04:02.973Z,38.87
2022-12-18T10:06:13.583Z,33.03
2022-12-18T10:08:23.564Z,34.07
2022-12-18T10:10:36.027Z,34.23
2022-12-18T10:12:47.466Z,40.87
2022-12-18T10:14:56.812Z,36.93
2022-12-18T10:17:10.070Z,38.07
2022-12-18T10:19:23.853Z,36.43
2022-12-18T10:21:34.117Z,39.50
2022-12-18T10:23:48.502Z,36.93
2022-12-18T10:25:57.488Z,40.97
2022-12-18T10:28:09.398Z,35.73
2022-12-18T10:30:16.010Z,36.57
2022-12-18T10:32:20.656Z,41.17
2022-12-18T10:34:23.819Z,40.13
2022-12-18T10:36:27.091Z,38.47
2022-12-18T10:38:31.099Z,39.53
2022-12-18T10:40:50.551Z,39.13
2022-12-18T10:43:06.142Z,41.50
2022-12-18T10:45:12.775Z,43.67
2022-12-18T10:47:20.022Z,42.93
2022-12-18T10:49:25.889Z,42.20
2022-12-18T10:51:31.722Z,39.37
2022-12-18T10:53:37.172Z,40.60
2022-12-18T10:55:46.467Z,40.43
2022-12-18T10:57:49.256Z,43.20
2022-12-18T10:59:53.821Z,42.30
2022-12-18T11:01:59.632Z,41.47
2022-12-18T11:04:09.647Z,41.03
2022-12-18T11:06:14.397Z,42.70
2022-12-18T11:08:23.565Z,39.63
2022-12-18T11:10:32.998Z,43.20
2022-12-18T11:12:37.060Z,40.37
2022-12-18T11:14:47.765Z,41.07
2022-12-18T11:19:23.410Z,43.47
2022-12-18T11:21:26.110Z,44.43
2022-12-18T11:23:29.584Z,46.40
2022-12-18T11:25:35.056Z,40.40
2022-12-18T11:27:40.368Z,40.87
2022-12-18T11:29:46.533Z,41.07
2022-12-18T11:31:49.810Z,43.17
2022-12-18T11:34:27.454Z,43.83
2022-12-18T11:36:24.687Z,45.50
2022-12-18T11:38:30.320Z,45.33
2022-12-18T11:40:41.021Z,45.83
2022-12-18T11:42:51.959Z,48.47
2022-12-18T11:44:59.193Z,47.87
2022-12-18T11:47:05.326Z,42.13
2022-12-18T11:49:17.292Z,44.50
2022-12-18T11:51:33.795Z,45.53
2022-12-18T11:53:39.145Z,49.23
2022-12-18T11:55:45.890Z,48.07
2022-12-18T11:58:00.356Z,46.23
2022-12-18T12:00:06.761Z,49.93
2022-12-18T12:02:30.514Z,47.03
2022-12-18T12:04:51.846Z,46.20
2022-12-18T12:07:04.078Z,46.40
2022-12-18T12:09:17.170Z,46.70
2022-12-18T12:11:30.116Z,47.47
2022-12-18T12:13:45.491Z,46.40
2022-12-18T12:15:54.828Z,47.70
2022-12-18T12:18:08.211Z,48.17
2022-12-18T12:20:20.792Z,43.80
2022-12-18T12:22:31.900Z,45.90
2022-12-18T12:24:47.152Z,48.50
2022-12-18T12:26:59.669Z,41.87
2022-12-18T12:29:24.051Z,44.27
2022-12-18T12:31:40.367Z,42.57
2022-12-18T12:33:53.873Z,43.23
2022-12-18T12:36:06.462Z,47.20
2022-12-18T12:38:14.946Z,46.27
2022-12-18T12:43:10.625Z,46.33
2022-12-18T12:45:23.793Z,44.33
2022-12-18T12:47:30.486Z,47.20
2022-12-18T12:49:40.477Z,47.07
2022-12-18T12:51:47.104Z,47.97
2022-12-18T12:53:50.994Z,47.80
2022-12-18T12:55:55.509Z,48.10
2022-12-18T12:58:07.528Z,51.03
2022-12-18T13:00:13.752Z,47.37
2022-12-18T13:02:26.753Z,47.10
2022-12-18T13:04:39.005Z,45.10
2022-12-18T13:06:48.570Z,47.40
2022-12-18T13:08:57.669Z,53.23
2022-12-18T13:11:15.122Z,47.90
2022-12-18T13:13:23.799Z,47.00
2022-12-18T13:15:37.588Z,47.67
2022-12-18T13:17:44.348Z,46.60
2022-12-18T13:19:50.951Z,47.90
2022-12-18T13:21:57.808Z,44.10
2022-12-18T13:24:17.711Z,48.37
2022-12-18T13:26:35.023Z,46.93
2022-12-18T13:28:54.508Z,48.03
2022-12-18T13:30:58.687Z,49.83
2022-12-18T13:33:56.277Z,47.13
2022-12-18T13:36:05.204Z,46.70
2022-12-18T13:38:23.427Z,46.33
2022-12-18T13:40:57.345Z,50.17
2022-12-18T13:43:15.098Z,44.20
2022-12-18T13:45:40.849Z,43.93
2022-12-18T13:47:45.962Z,46.13
2022-12-18T13:49:50.536Z,47.23
2022-12-18T13:51:55.867Z,49.53
2022-12-18T13:54:01.475Z,50.43
2022-12-18T13:56:05.455Z,51.10
2022-12-18T13:58:08.602Z,53.63
2022-12-18T14:00:27.398Z,48.83
2022-12-18T14:02:31.187Z,49.97
2022-12-18T14:04:36.000Z,52.23
2022-12-18T14:06:40.459Z,51.87
2022-12-18T14:08:45.601Z,53.17
2022-12-18T14:10:51.917Z,52.47
2022-12-18T14:13:01.103Z,51.97
2022-12-18T14:15:11.521Z,51.00
2022-12-18T14:17:15.015Z,60.70
2022-12-18T14:19:20.159Z,51.33
2022-12-18T14:21:26.845Z,48.63
2022-12-18T14:23:34.727Z,50.57
2022-12-18T14:25:37.568Z,54.77
2022-12-18T14:27:44.586Z,53.67
2022-12-18T14:29:47.411Z,53.20
2022-12-18T14:32:23.353Z,50.07
2022-12-18T14:34:28.638Z,50.00
2022-12-18T14:36:31.431Z,55.53
2022-12-18T14:38:37.506Z,51.03
2022-12-18T14:40:40.480Z,53.50
2022-12-18T14:42:44.192Z,54.87
2022-12-18T14:47:17.217Z,53.67
2022-12-18T14:49:25.294Z,54.33
2022-12-18T14:51:31.271Z,52.20
2022-12-18T14:53:41.531Z,48.77
2022-12-18T14:55:48.326Z,54.43
2022-12-18T14:57:53.418Z,55.23
2022-12-18T15:00:06.449Z,53.57
2022-12-18T15:02:20.604Z,56.93
2022-12-18T15:04:29.303Z,53.90
2022-12-18T15:06:35.474Z,49.03
2022-12-18T15:08:39.703Z,55.80
2022-12-18T15:10:49.400Z,65.63
2022-12-18T15:13:08.140Z,71.07
2022-12-18T15:15:46.357Z,72.00
2022-12-18T15:17:49.131Z,59.83
2022-12-18T15:19:54.818Z,60.60
2022-12-18T15:22:04.431Z,55.23
2022-12-18T15:24:20.018Z,58.70
2022-12-18T15:26:24.235Z,54.10
2022-12-18T15:28:29.170Z,52.97
2022-12-18T15:30:32.239Z,56.27
2022-12-18T15:32:35.722Z,56.53
2022-12-18T15:34:38.435Z,58.00
2022-12-18T15:36:41.492Z,52.03
2022-12-18T15:38:48.271Z,59.47
2022-12-18T15:40:52.892Z,58.10
2022-12-18T15:43:14.471Z,58.70
2022-12-18T15:45:17.208Z,59.63
2022-12-18T15:47:21.716Z,60.73
2022-12-18T15:49:24.588Z,65.50
2022-12-18T15:51:30.871Z,60.33
2022-12-18T15:53:35.399Z,56.10
2022-12-18T15:56:00.983Z,55.43
2022-12-18T15:58:05.567Z,59.73
2022-12-18T16:00:13.452Z,55.67
2022-12-18T16:02:19.794Z,60.33
2022-12-18T16:04:24.468Z,53.50
2022-12-18T16:06:30.494Z,57.57
2022-12-18T16:08:39.175Z,54.57
2022-12-18T16:10:43.907Z,58.03
2022-12-18T16:12:49.751Z,51.23
2022-12-18T16:14:54.033Z,56.53
2022-12-18T16:16:58.802Z,63.90
2022-12-18T16:19:01.537Z,52.10
2022-12-18T16:21:05.773Z,55.43
2022-12-18T16:23:08.784Z,51.97
2022-12-18T16:25:19.228Z,54.33
2022-12-18T16:27:22.518Z,57.83
2022-12-18T16:29:28.115Z,58.30
2022-12-18T16:31:32.420Z,58.43
2022-12-18T16:33:35.211Z,56.63
2022-12-18T16:35:38.137Z,60.60
2022-12-18T16:37:42.079Z,60.83
2022-12-18T16:39:45.214Z,58.53
2022-12-18T16:41:48.408Z,57.83
2022-12-18T16:43:54.772Z,61.80
2022-12-18T16:46:00.987Z,53.77
2022-12-18T16:48:05.603Z,53.33
2022-12-18T16:50:09.635Z,58.50
2022-12-18T16:52:12.803Z,59.17
2022-12-18T16:54:19.115Z,55.37
2022-12-18T16:56:25.268Z,52.67
2022-12-18T16:58:28.040Z,57.53
2022-12-18T17:00:31.194Z,57.00
2022-12-18T17:02:34.230Z,56.70
2022-12-18T17:04:38.754Z,58.47
2022-12-18T17:06:43.521Z,57.23
2022-12-18T17:08:46.252Z,57.77
2022-12-18T17:10:49.008Z,56.03
2022-12-18T17:12:52.255Z,54.40
2022-12-18T17:14:55.157Z,60.80
2022-12-18T17:17:20.400Z,55.53
2022-12-18T17:19:21.725Z,57.57
2022-12-18T17:21:25.835Z,51.90
2022-12-18T17:23:29.045Z,48.03
2022-12-18T17:25:32.074Z,50.00
2022-12-18T17:27:35.533Z,70.27
2022-12-18T17:29:43.865Z,66.37
2022-12-18T17:31:50.064Z,76.30
2022-12-18T17:33:53.507Z,76.67
2022-12-18T17:35:59.600Z,72.90
2022-12-18T17:38:03.683Z,71.10
2022-12-18T17:40:07.850Z,70.10
2022-12-18T17:42:15.200Z,60.60
2022-12-18T17:44:19.244Z,64.17
2022-12-18T17:46:22.476Z,69.30
2022-12-18T17:48:25.258Z,86.67
2022-12-18T17:50:28.658Z,71.20
2022-12-18T17:52:31.358Z,61.40
2022-12-18T17:54:39.235Z,66.07
2022-12-18T17:56:42.042Z,72.23
2022-12-18T17:58:45.482Z,94.50
2022-12-18T18:00:48.206Z,80.77
2022-12-18T18:02:51.019Z,69.90
2022-12-18T18:04:53.861Z,68.57
2022-12-18T18:06:56.599Z,77.80
2022-12-18T18:08:59.423Z,73.57
2022-12-18T18:11:20.555Z,76.23
2022-12-18T18:13:46.842Z,65.43
2022-12-18T18:15:56.901Z,63.17
2022-12-18T18:18:01.921Z,63.60
2022-12-18T18:20:06.049Z,60.30
2022-12-18T18:22:08.930Z,63.30
2022-12-18T18:24:14.072Z,60.47
2022-12-18T18:26:18.129Z,62.03
2022-12-18T18:28:21.498Z,59.10
2022-12-18T18:30:24.209Z,58.63
2022-12-18T18:32:27.201Z,64.70
2022-12-18T18:34:31.761Z,57.90
2022-12-18T18:36:34.690Z,59.77
2022-12-18T18:38:38.670Z,60.47
2022-12-18T18:40:41.397Z,62.67
2022-12-18T18:42:45.407Z,59.17
2022-12-18T18:44:49.144Z,59.40
2022-12-18T18:46:52.154Z,57.57
2022-12-18T18:48:55.894Z,63.10
2022-12-18T18:50:59.109Z,58.27
2022-12-18T18:53:02.171Z,59.73
2022-12-18T18:55:18.493Z,58.97
2022-12-18T18:57:30.421Z,57.57
2022-12-18T18:59:34.994Z,58.70
2022-12-18T19:01:38.140Z,62.70
2022-12-18T19:03:41.661Z,60.80
2022-12-18T19:05:47.641Z,55.63
2022-12-18T19:07:50.476Z,55.90
2022-12-18T19:09:54.205Z,54.80
2022-12-18T19:12:15.083Z,52.20
2022-12-18T19:14:18.079Z,60.87
2022-12-18T19:16:22.586Z,61.77
2022-12-18T19:18:27.211Z,62.30
2022-12-18T19:20:29.894Z,67.07
2022-12-18T19:22:32.621Z,64.03
2022-12-18T19:24:36.557Z,68.37
2022-12-18T19:26:39.439Z,64.57
2022-12-18T19:28:42.798Z,86.90
2022-12-18T19:30:47.136Z,72.23
2022-12-18T19:32:51.228Z,62.23
2022-12-18T19:34:54.851Z,60.97
2022-12-18T19:36:59.951Z,60.20
2022-12-18T19:39:09.771Z,58.73
2022-12-18T19:41:12.543Z,58.37
2022-12-18T19:43:16.889Z,60.50
2022-12-18T19:45:19.585Z,57.53
2022-12-18T19:47:22.471Z,57.27
2022-12-18T19:49:26.582Z,62.67
2022-12-18T19:51:30.801Z,60.47
2022-12-18T19:53:33.557Z,56.67
2022-12-18T19:55:41.685Z,63.87
2022-12-18T19:57:45.978Z,58.70
2022-12-18T19:59:48.702Z,57.43
2022-12-18T20:01:54.161Z,62.53
2022-12-18T20:03:58.081Z,62.03
2022-12-18T20:06:11.270Z,60.80
2022-12-18T20:08:13.991Z,65.00
2022-12-18T20:10:16.669Z,59.07
2022-12-18T20:12:21.102Z,62.87
2022-12-18T20:14:24.250Z,66.33
2022-12-18T20:16:27.044Z,62.50
2022-12-18T20:18:30.246Z,59.37
2022-12-18T20:20:33.273Z,57.83
2022-12-18T20:22:37.778Z,61.93
2022-12-18T20:24:40.605Z,58.10
2022-12-18T20:26:43.341Z,57.67
2022-12-18T20:28:46.114Z,57.90
2022-12-18T20:30:49.108Z,56.93
2022-12-18T20:32:51.864Z,63.80
2022-12-18T20:34:54.880Z,64.07
2022-12-18T20:36:58.136Z,54.17
2022-12-18T20:39:05.245Z,58.00
2022-12-18T20:41:10.886Z,59.43
2022-12-18T20:43:17.119Z,59.27
2022-12-18T20:45:20.758Z,59.57
2022-12-18T20:47:23.490Z,58.57
2022-12-18T20:49:27.830Z,60.60
2022-12-18T20:51:31.630Z,58.50
2022-12-18T20:53:35.015Z,55.83
2022-12-18T20:55:44.546Z,57.17
2022-12-18T20:57:47.316Z,58.23
2022-12-18T20:59:50.061Z,55.87
2022-12-18T21:01:53.037Z,54.97
2022-12-18T21:03:56.155Z,59.03
2022-12-18T21:05:59.124Z,56.50
2022-12-18T21:08:02.034Z,55.60
2022-12-18T21:10:06.404Z,54.07
2022-12-18T21:12:40.579Z,49.73
2022-12-18T21:14:48.173Z,52.33
2022-12-18T21:16:53.352Z,57.10
2022-12-18T21:18:56.157Z,51.27
2022-12-18T21:21:00.480Z,57.33
2022-12-18T21:23:15.564Z,55.23
2022-12-18T21:25:19.083Z,50.37
2022-12-18T21:27:23.258Z,55.10
2022-12-18T21:29:27.159Z,49.20
2022-12-18T21:31:31.296Z,49.70
2022-12-18T21:33:34.091Z,49.57
2022-12-18T21:35:36.825Z,51.87
2022-12-18T21:37:39.621Z,55.73
2022-12-18T21:39:42.985Z,55.80
2022-12-18T21:42:04.890Z,50.33
2022-12-18T21:44:11.548Z,55.97
2022-12-18T21:46:14.555Z,49.63
2022-12-18T21:48:17.354Z,50.77
2022-12-18T21:50:20.130Z,50.80
2022-12-18T21:52:25.689Z,52.27
2022-12-18T21:54:35.270Z,51.93
2022-12-18T21:56:45.377Z,52.33
2022-12-18T21:58:56.732Z,49.07
2022-12-18T22:01:01.602Z,52.60
2022-12-18T22:03:18.365Z,55.47
2022-12-18T22:05:22.294Z,46.60
2022-12-18T22:07:25.203Z,51.30
2022-12-18T22:09:27.904Z,52.67
2022-12-18T22:11:30.642Z,53.40
2022-12-18T22:13:33.566Z,50.33
2022-12-18T22:15:36.979Z,49.43
2022-12-18T22:17:41.171Z,49.47
2022-12-18T22:19:43.945Z,54.37
2022-12-18T22:21:49.184Z,50.20
2022-12-18T22:23:57.131Z,49.47
2022-12-18T22:25:59.958Z,51.20
2022-12-18T22:28:20.712Z,50.60
2022-12-18T22:30:23.610Z,52.00
2022-12-18T22:32:31.244Z,54.97
2022-12-18T22:34:36.918Z,50.50
2022-12-18T22:36:41.903Z,51.77
2022-12-18T22:38:44.650Z,47.80
2022-12-18T22:40:47.429Z,50.50
2022-12-18T22:42:50.641Z,51.40
2022-12-18T22:44:55.338Z,53.80
2022-12-18T22:47:06.802Z,56.67
2022-12-18T22:49:13.312Z,51.47
2022-12-18T22:51:19.945Z,56.80
2022-12-18T22:53:23.071Z,53.93
2022-12-18T22:55:25.951Z,53.20
2022-12-18T22:57:28.984Z,53.50
2022-12-18T22:59:31.658Z,50.27
2022-12-18T23:01:34.460Z,53.63
2022-12-18T23:03:39.488Z,53.63
2022-12-18T23:05:42.232Z,50.80
2022-12-18T23:07:46.953Z,52.23
2022-12-18T23:09:51.646Z,56.50
2022-12-18T23:12:04.317Z,51.47
2022-12-18T23:14:07.071Z,53.73
2022-12-18T23:16:12.486Z,51.37
2022-12-18T23:18:15.206Z,51.23
2022-12-18T23:20:18.035Z,50.17
2022-12-18T23:22:20.961Z,49.43
2022-12-18T23:24:25.234Z,50.87
2022-12-18T23:26:28.327Z,49.70
2022-12-18T23:28:33.153Z,52.10
2022-12-18T23:30:36.015Z,48.80
2022-12-18T23:32:38.771Z,47.20
2022-12-18T23:34:41.642Z,50.07
2022-12-18T23:36:45.445Z,49.83
2022-12-18T23:38:51.183Z,50.00
2022-12-18T23:40:56.517Z,53.63
2022-12-18T23:43:00.446Z,51.67
2022-12-18T23:45:03.932Z,51.50
2022-12-18T23:47:12.210Z,48.67
2022-12-18T23:49:15.088Z,50.97
2022-12-18T23:51:19.715Z,46.17
2022-12-18T23:53:22.453Z,47.63
2022-12-18T23:55:25.142Z,49.00
2022-12-18T23:57:29.190Z,51.07
2022-12-18T23:59:32.243Z,50.10
